sensor_id;sensor_type;location;lat;lon;timestamp;P1;durP1;ratioP1;P2;durP2;ratioP2
16442;SDS011;8331;51.654;14.376;2024-02-21T00:00:07;16.47;;;4.63;;
16442;SDS011;8331;51.654;14.376;2024-02-21T00:02:34;12.83;;;3.30;;
16442;SDS011;8331;51.654;14.376;2024-02-21T00:05:01;15.60;;;4.57;;
16442;SDS011;8331;51.654;14.376;2024-02-21T00:07:27;13.17;;;3.97;;
16442;SDS011;8331;51.654;14.376;2024-02-21T00:09:54;9.47;;;3.83;;
16442;SDS011;8331;51.654;14.376;2024-02-21T00:12:21;13.27;;;4.13;;
16442;SDS011;8331;51.654;14.376;2024-02-21T00:14:48;14.80;;;4.13;;
16442;SDS011;8331;51.654;14.376;2024-02-21T00:17:14;11.87;;;4.23;;
16442;SDS011;8331;51.654;14.376;2024-02-21T00:19:41;13.03;;;4.33;;
16442;SDS011;8331;51.654;14.376;2024-02-21T00:22:08;16.63;;;4.10;;
16442;SDS011;8331;51.654;14.376;2024-02-21T00:24:35;10.37;;;3.87;;
16442;SDS011;8331;51.654;14.376;2024-02-21T00:27:01;8.83;;;3.70;;
16442;SDS011;8331;51.654;14.376;2024-02-21T00:29:28;12.47;;;4.73;;
16442;SDS011;8331;51.654;14.376;2024-02-21T00:31:55;13.30;;;4.57;;
16442;SDS011;8331;51.654;14.376;2024-02-21T00:34:21;12.60;;;4.40;;
16442;SDS011;8331;51.654;14.376;2024-02-21T00:36:48;10.93;;;4.27;;
16442;SDS011;8331;51.654;14.376;2024-02-21T00:39:16;9.20;;;3.77;;
16442;SDS011;8331;51.654;14.376;2024-02-21T00:41:43;9.60;;;3.77;;
16442;SDS011;8331;51.654;14.376;2024-02-21T00:44:09;12.13;;;4.00;;
16442;SDS011;8331;51.654;14.376;2024-02-21T00:46:36;9.47;;;3.80;;
16442;SDS011;8331;51.654;14.376;2024-02-21T00:49:05;15.37;;;4.20;;
16442;SDS011;8331;51.654;14.376;2024-02-21T00:51:32;11.33;;;3.97;;
16442;SDS011;8331;51.654;14.376;2024-02-21T00:53:58;15.27;;;3.97;;
16442;SDS011;8331;51.654;14.376;2024-02-21T00:56:25;14.13;;;4.33;;
16442;SDS011;8331;51.654;14.376;2024-02-21T00:58:52;17.07;;;4.50;;
16442;SDS011;8331;51.654;14.376;2024-02-21T01:01:27;10.53;;;4.07;;
16442;SDS011;8331;51.654;14.376;2024-02-21T01:03:54;15.47;;;4.87;;
16442;SDS011;8331;51.654;14.376;2024-02-21T01:06:21;15.47;;;3.87;;
16442;SDS011;8331;51.654;14.376;2024-02-21T01:08:48;9.00;;;4.30;;
16442;SDS011;8331;51.654;14.376;2024-02-21T01:11:15;9.80;;;4.27;;
16442;SDS011;8331;51.654;14.376;2024-02-21T01:13:42;10.30;;;4.20;;
16442;SDS011;8331;51.654;14.376;2024-02-21T01:16:09;9.33;;;3.73;;
16442;SDS011;8331;51.654;14.376;2024-02-21T01:18:39;9.07;;;4.27;;
16442;SDS011;8331;51.654;14.376;2024-02-21T01:21:08;9.37;;;3.77;;
16442;SDS011;8331;51.654;14.376;2024-02-21T01:23:36;11.97;;;3.90;;
16442;SDS011;8331;51.654;14.376;2024-02-21T01:26:03;10.53;;;4.03;;
16442;SDS011;8331;51.654;14.376;2024-02-21T01:28:30;11.43;;;3.63;;
16442;SDS011;8331;51.654;14.376;2024-02-21T01:30:57;10.57;;;3.77;;
16442;SDS011;8331;51.654;14.376;2024-02-21T01:33:24;11.70;;;4.20;;
16442;SDS011;8331;51.654;14.376;2024-02-21T01:35:50;10.67;;;3.63;;
16442;SDS011;8331;51.654;14.376;2024-02-21T01:38:17;11.90;;;3.87;;
16442;SDS011;8331;51.654;14.376;2024-02-21T01:40:44;10.87;;;3.77;;
16442;SDS011;8331;51.654;14.376;2024-02-21T01:43:17;11.43;;;3.67;;
16442;SDS011;8331;51.654;14.376;2024-02-21T01:45:47;10.90;;;4.20;;
16442;SDS011;8331;51.654;14.376;2024-02-21T01:48:14;9.33;;;4.53;;
16442;SDS011;8331;51.654;14.376;2024-02-21T01:50:41;11.67;;;4.53;;
16442;SDS011;8331;51.654;14.376;2024-02-21T01:53:08;13.03;;;4.10;;
16442;SDS011;8331;51.654;14.376;2024-02-21T01:55:35;14.13;;;5.17;;
16442;SDS011;8331;51.654;14.376;2024-02-21T01:58:01;9.07;;;4.43;;
16442;SDS011;8331;51.654;14.376;2024-02-21T02:00:28;8.53;;;4.50;;
16442;SDS011;8331;51.654;14.376;2024-02-21T02:02:56;12.53;;;4.93;;
16442;SDS011;8331;51.654;14.376;2024-02-21T02:05:23;12.17;;;5.27;;
16442;SDS011;8331;51.654;14.376;2024-02-21T02:07:49;10.07;;;4.80;;
16442;SDS011;8331;51.654;14.376;2024-02-21T02:10:16;9.70;;;4.83;;
16442;SDS011;8331;51.654;14.376;2024-02-21T02:12:43;8.83;;;4.67;;
16442;SDS011;8331;51.654;14.376;2024-02-21T02:15:10;9.10;;;4.70;;
16442;SDS011;8331;51.654;14.376;2024-02-21T02:17:36;13.13;;;4.50;;
16442;SDS011;8331;51.654;14.376;2024-02-21T02:20:03;7.77;;;4.30;;
16442;SDS011;8331;51.654;14.376;2024-02-21T02:22:31;8.33;;;4.67;;
16442;SDS011;8331;51.654;14.376;2024-02-21T02:24:58;14.43;;;4.37;;
16442;SDS011;8331;51.654;14.376;2024-02-21T02:27:25;10.13;;;4.23;;
16442;SDS011;8331;51.654;14.376;2024-02-21T02:29:52;9.30;;;4.40;;
16442;SDS011;8331;51.654;14.376;2024-02-21T02:32:19;8.93;;;4.00;;
16442;SDS011;8331;51.654;14.376;2024-02-21T02:34:46;13.13;;;3.80;;
16442;SDS011;8331;51.654;14.376;2024-02-21T02:37:12;9.67;;;4.00;;
16442;SDS011;8331;51.654;14.376;2024-02-21T02:39:39;9.67;;;4.43;;
16442;SDS011;8331;51.654;14.376;2024-02-21T02:42:06;11.27;;;3.67;;
16442;SDS011;8331;51.654;14.376;2024-02-21T02:44:32;13.63;;;4.30;;
16442;SDS011;8331;51.654;14.376;2024-02-21T02:46:59;13.37;;;4.30;;
16442;SDS011;8331;51.654;14.376;2024-02-21T02:49:25;10.13;;;4.00;;
16442;SDS011;8331;51.654;14.376;2024-02-21T02:51:52;12.27;;;3.60;;
16442;SDS011;8331;51.654;14.376;2024-02-21T02:54:19;11.50;;;3.77;;
16442;SDS011;8331;51.654;14.376;2024-02-21T02:56:45;12.37;;;3.63;;
16442;SDS011;8331;51.654;14.376;2024-02-21T02:59:12;10.73;;;4.10;;
16442;SDS011;8331;51.654;14.376;2024-02-21T03:01:38;10.10;;;3.80;;
16442;SDS011;8331;51.654;14.376;2024-02-21T03:04:05;7.20;;;3.50;;
16442;SDS011;8331;51.654;14.376;2024-02-21T03:06:32;14.87;;;4.17;;
16442;SDS011;8331;51.654;14.376;2024-02-21T03:08:59;8.00;;;3.53;;
16442;SDS011;8331;51.654;14.376;2024-02-21T03:11:27;11.77;;;3.77;;
16442;SDS011;8331;51.654;14.376;2024-02-21T03:13:56;12.83;;;3.80;;
16442;SDS011;8331;51.654;14.376;2024-02-21T03:16:23;10.43;;;3.50;;
16442;SDS011;8331;51.654;14.376;2024-02-21T03:18:50;10.33;;;3.63;;
16442;SDS011;8331;51.654;14.376;2024-02-21T03:21:17;12.80;;;4.37;;
16442;SDS011;8331;51.654;14.376;2024-02-21T03:23:44;9.30;;;3.93;;
16442;SDS011;8331;51.654;14.376;2024-02-21T03:26:10;8.77;;;3.23;;
16442;SDS011;8331;51.654;14.376;2024-02-21T03:28:37;9.30;;;3.70;;
16442;SDS011;8331;51.654;14.376;2024-02-21T03:31:06;9.47;;;4.10;;
16442;SDS011;8331;51.654;14.376;2024-02-21T03:33:32;10.95;;;4.28;;
16442;SDS011;8331;51.654;14.376;2024-02-21T03:35:59;12.17;;;3.97;;
16442;SDS011;8331;51.654;14.376;2024-02-21T03:38:26;10.47;;;3.83;;
16442;SDS011;8331;51.654;14.376;2024-02-21T03:40:52;8.00;;;4.47;;
16442;SDS011;8331;51.654;14.376;2024-02-21T03:43:19;9.57;;;4.10;;
16442;SDS011;8331;51.654;14.376;2024-02-21T03:45:46;13.80;;;4.90;;
16442;SDS011;8331;51.654;14.376;2024-02-21T03:48:12;8.87;;;4.17;;
16442;SDS011;8331;51.654;14.376;2024-02-21T03:50:39;10.93;;;6.23;;
16442;SDS011;8331;51.654;14.376;2024-02-21T03:53:06;10.90;;;4.37;;
16442;SDS011;8331;51.654;14.376;2024-02-21T03:55:32;11.32;;;4.35;;
16442;SDS011;8331;51.654;14.376;2024-02-21T03:57:59;13.53;;;4.43;;
16442;SDS011;8331;51.654;14.376;2024-02-21T04:00:26;8.83;;;3.90;;
16442;SDS011;8331;51.654;14.376;2024-02-21T04:02:52;10.73;;;4.37;;
16442;SDS011;8331;51.654;14.376;2024-02-21T04:05:19;12.80;;;4.30;;
16442;SDS011;8331;51.654;14.376;2024-02-21T04:07:46;10.70;;;4.40;;
16442;SDS011;8331;51.654;14.376;2024-02-21T04:10:12;11.43;;;4.77;;
16442;SDS011;8331;51.654;14.376;2024-02-21T04:12:39;21.27;;;4.77;;
16442;SDS011;8331;51.654;14.376;2024-02-21T04:15:06;10.30;;;4.87;;
16442;SDS011;8331;51.654;14.376;2024-02-21T04:17:32;10.57;;;4.73;;
16442;SDS011;8331;51.654;14.376;2024-02-21T04:20:03;10.00;;;4.87;;
16442;SDS011;8331;51.654;14.376;2024-02-21T04:22:35;13.67;;;4.70;;
16442;SDS011;8331;51.654;14.376;2024-02-21T04:25:02;9.73;;;4.47;;
16442;SDS011;8331;51.654;14.376;2024-02-21T04:27:28;10.43;;;4.40;;
16442;SDS011;8331;51.654;14.376;2024-02-21T04:29:55;6.40;;;4.40;;
16442;SDS011;8331;51.654;14.376;2024-02-21T04:32:22;10.63;;;4.60;;
16442;SDS011;8331;51.654;14.376;2024-02-21T04:34:49;14.50;;;4.77;;
16442;SDS011;8331;51.654;14.376;2024-02-21T04:37:15;10.03;;;4.97;;
16442;SDS011;8331;51.654;14.376;2024-02-21T04:39:42;9.87;;;4.40;;
16442;SDS011;8331;51.654;14.376;2024-02-21T04:42:09;11.43;;;4.53;;
16442;SDS011;8331;51.654;14.376;2024-02-21T04:44:35;12.53;;;4.30;;
16442;SDS011;8331;51.654;14.376;2024-02-21T04:47:02;11.40;;;4.83;;
16442;SDS011;8331;51.654;14.376;2024-02-21T04:49:30;10.83;;;5.03;;
16442;SDS011;8331;51.654;14.376;2024-02-21T04:51:57;9.20;;;4.30;;
16442;SDS011;8331;51.654;14.376;2024-02-21T04:54:23;9.53;;;4.50;;
16442;SDS011;8331;51.654;14.376;2024-02-21T04:56:50;11.47;;;4.13;;
16442;SDS011;8331;51.654;14.376;2024-02-21T04:59:19;8.30;;;4.17;;
16442;SDS011;8331;51.654;14.376;2024-02-21T05:01:45;10.07;;;4.40;;
16442;SDS011;8331;51.654;14.376;2024-02-21T05:04:12;14.40;;;4.67;;
16442;SDS011;8331;51.654;14.376;2024-02-21T05:06:39;9.53;;;4.50;;
16442;SDS011;8331;51.654;14.376;2024-02-21T05:09:06;16.00;;;6.20;;
16442;SDS011;8331;51.654;14.376;2024-02-21T05:11:33;9.43;;;4.40;;
16442;SDS011;8331;51.654;14.376;2024-02-21T05:14:00;8.50;;;4.20;;
16442;SDS011;8331;51.654;14.376;2024-02-21T05:16:27;9.53;;;4.37;;
16442;SDS011;8331;51.654;14.376;2024-02-21T05:18:53;10.43;;;4.63;;
16442;SDS011;8331;51.654;14.376;2024-02-21T05:21:20;9.77;;;4.30;;
16442;SDS011;8331;51.654;14.376;2024-02-21T05:23:47;8.97;;;3.97;;
16442;SDS011;8331;51.654;14.376;2024-02-21T05:26:19;8.13;;;3.53;;
16442;SDS011;8331;51.654;14.376;2024-02-21T05:28:46;7.70;;;3.90;;
16442;SDS011;8331;51.654;14.376;2024-02-21T05:31:12;17.27;;;4.83;;
16442;SDS011;8331;51.654;14.376;2024-02-21T05:33:40;11.70;;;4.77;;
16442;SDS011;8331;51.654;14.376;2024-02-21T05:36:07;11.27;;;4.73;;
16442;SDS011;8331;51.654;14.376;2024-02-21T05:38:34;10.10;;;4.30;;
16442;SDS011;8331;51.654;14.376;2024-02-21T05:41:01;10.80;;;4.53;;
16442;SDS011;8331;51.654;14.376;2024-02-21T05:43:28;8.20;;;4.00;;
16442;SDS011;8331;51.654;14.376;2024-02-21T05:45:55;10.17;;;4.27;;
16442;SDS011;8331;51.654;14.376;2024-02-21T05:48:22;11.57;;;4.00;;
16442;SDS011;8331;51.654;14.376;2024-02-21T05:50:49;8.83;;;3.90;;
16442;SDS011;8331;51.654;14.376;2024-02-21T05:53:16;7.00;;;3.87;;
16442;SDS011;8331;51.654;14.376;2024-02-21T05:55:43;10.07;;;4.33;;
16442;SDS011;8331;51.654;14.376;2024-02-21T05:58:09;8.80;;;4.17;;
16442;SDS011;8331;51.654;14.376;2024-02-21T06:00:40;7.40;;;4.30;;
16442;SDS011;8331;51.654;14.376;2024-02-21T06:03:06;7.53;;;4.07;;
16442;SDS011;8331;51.654;14.376;2024-02-21T06:05:37;14.17;;;4.50;;
16442;SDS011;8331;51.654;14.376;2024-02-21T06:08:04;12.30;;;4.87;;
16442;SDS011;8331;51.654;14.376;2024-02-21T06:10:30;10.07;;;4.47;;
16442;SDS011;8331;51.654;14.376;2024-02-21T06:12:57;13.03;;;4.67;;
16442;SDS011;8331;51.654;14.376;2024-02-21T06:15:24;10.40;;;5.20;;
16442;SDS011;8331;51.654;14.376;2024-02-21T06:17:50;10.83;;;5.03;;
16442;SDS011;8331;51.654;14.376;2024-02-21T06:20:17;12.87;;;6.20;;
16442;SDS011;8331;51.654;14.376;2024-02-21T06:22:44;11.33;;;9.53;;
16442;SDS011;8331;51.654;14.376;2024-02-21T06:25:11;8.60;;;6.57;;
16442;SDS011;8331;51.654;14.376;2024-02-21T06:27:37;10.23;;;5.30;;
16442;SDS011;8331;51.654;14.376;2024-02-21T06:30:04;12.27;;;7.17;;
16442;SDS011;8331;51.654;14.376;2024-02-21T06:32:31;14.07;;;6.30;;
16442;SDS011;8331;51.654;14.376;2024-02-21T06:34:58;14.37;;;6.40;;
16442;SDS011;8331;51.654;14.376;2024-02-21T06:37:24;13.17;;;6.07;;
16442;SDS011;8331;51.654;14.376;2024-02-21T06:39:51;14.47;;;5.73;;
16442;SDS011;8331;51.654;14.376;2024-02-21T06:42:18;11.10;;;5.90;;
16442;SDS011;8331;51.654;14.376;2024-02-21T06:44:44;12.53;;;5.70;;
16442;SDS011;8331;51.654;14.376;2024-02-21T06:47:11;13.43;;;5.27;;
16442;SDS011;8331;51.654;14.376;2024-02-21T06:49:38;16.67;;;6.20;;
16442;SDS011;8331;51.654;14.376;2024-02-21T06:52:05;10.47;;;4.80;;
16442;SDS011;8331;51.654;14.376;2024-02-21T06:54:31;21.67;;;5.57;;
16442;SDS011;8331;51.654;14.376;2024-02-21T06:56:58;12.10;;;5.30;;
16442;SDS011;8331;51.654;14.376;2024-02-21T06:59:25;13.80;;;5.43;;
16442;SDS011;8331;51.654;14.376;2024-02-21T07:01:53;12.03;;;5.50;;
16442;SDS011;8331;51.654;14.376;2024-02-21T07:04:20;10.37;;;5.17;;
16442;SDS011;8331;51.654;14.376;2024-02-21T07:06:46;16.07;;;5.37;;
16442;SDS011;8331;51.654;14.376;2024-02-21T07:09:13;15.47;;;5.57;;
16442;SDS011;8331;51.654;14.376;2024-02-21T07:11:40;9.80;;;5.33;;
16442;SDS011;8331;51.654;14.376;2024-02-21T07:14:07;12.13;;;4.60;;
16442;SDS011;8331;51.654;14.376;2024-02-21T07:16:33;13.80;;;5.93;;
16442;SDS011;8331;51.654;14.376;2024-02-21T07:19:00;13.20;;;6.17;;
16442;SDS011;8331;51.654;14.376;2024-02-21T07:21:27;11.23;;;5.60;;
16442;SDS011;8331;51.654;14.376;2024-02-21T07:23:54;10.67;;;5.43;;
16442;SDS011;8331;51.654;14.376;2024-02-21T07:26:20;14.00;;;5.57;;
16442;SDS011;8331;51.654;14.376;2024-02-21T07:28:48;7.83;;;4.47;;
16442;SDS011;8331;51.654;14.376;2024-02-21T07:31:15;13.00;;;4.93;;
16442;SDS011;8331;51.654;14.376;2024-02-21T07:33:41;9.67;;;5.10;;
16442;SDS011;8331;51.654;14.376;2024-02-21T07:36:10;7.97;;;4.57;;
16442;SDS011;8331;51.654;14.376;2024-02-21T07:38:36;10.80;;;5.17;;
16442;SDS011;8331;51.654;14.376;2024-02-21T07:41:03;11.37;;;4.70;;
16442;SDS011;8331;51.654;14.376;2024-02-21T07:43:30;12.43;;;6.07;;
16442;SDS011;8331;51.654;14.376;2024-02-21T07:45:57;11.93;;;5.27;;
16442;SDS011;8331;51.654;14.376;2024-02-21T07:48:24;9.40;;;4.80;;
16442;SDS011;8331;51.654;14.376;2024-02-21T07:50:53;12.87;;;4.87;;
16442;SDS011;8331;51.654;14.376;2024-02-21T07:53:20;11.20;;;4.50;;
16442;SDS011;8331;51.654;14.376;2024-02-21T07:55:46;10.00;;;4.97;;
16442;SDS011;8331;51.654;14.376;2024-02-21T07:58:13;9.90;;;5.00;;
16442;SDS011;8331;51.654;14.376;2024-02-21T08:00:40;8.13;;;5.27;;
16442;SDS011;8331;51.654;14.376;2024-02-21T08:03:06;9.47;;;4.90;;
16442;SDS011;8331;51.654;14.376;2024-02-21T08:05:36;10.43;;;4.80;;
16442;SDS011;8331;51.654;14.376;2024-02-21T08:08:03;10.60;;;5.10;;
16442;SDS011;8331;51.654;14.376;2024-02-21T08:10:30;13.10;;;5.20;;
16442;SDS011;8331;51.654;14.376;2024-02-21T08:12:57;14.27;;;5.37;;
16442;SDS011;8331;51.654;14.376;2024-02-21T08:15:24;11.40;;;5.13;;
16442;SDS011;8331;51.654;14.376;2024-02-21T08:17:55;10.13;;;4.97;;
16442;SDS011;8331;51.654;14.376;2024-02-21T08:20:25;8.63;;;5.20;;
16442;SDS011;8331;51.654;14.376;2024-02-21T08:22:52;9.27;;;5.27;;
16442;SDS011;8331;51.654;14.376;2024-02-21T08:25:19;6.90;;;4.93;;
16442;SDS011;8331;51.654;14.376;2024-02-21T08:27:46;10.67;;;4.50;;
16442;SDS011;8331;51.654;14.376;2024-02-21T08:30:14;8.27;;;4.07;;
16442;SDS011;8331;51.654;14.376;2024-02-21T08:32:41;11.30;;;5.30;;
16442;SDS011;8331;51.654;14.376;2024-02-21T08:35:08;7.70;;;4.60;;
16442;SDS011;8331;51.654;14.376;2024-02-21T08:37:35;9.97;;;4.83;;
16442;SDS011;8331;51.654;14.376;2024-02-21T08:40:02;6.13;;;4.17;;
16442;SDS011;8331;51.654;14.376;2024-02-21T08:42:35;6.90;;;4.60;;
16442;SDS011;8331;51.654;14.376;2024-02-21T08:45:02;5.77;;;4.67;;
16442;SDS011;8331;51.654;14.376;2024-02-21T08:47:28;9.37;;;4.73;;
16442;SDS011;8331;51.654;14.376;2024-02-21T08:49:55;9.03;;;4.43;;
16442;SDS011;8331;51.654;14.376;2024-02-21T08:52:23;11.23;;;4.20;;
16442;SDS011;8331;51.654;14.376;2024-02-21T08:54:50;8.43;;;5.07;;
16442;SDS011;8331;51.654;14.376;2024-02-21T08:57:19;7.43;;;4.40;;
16442;SDS011;8331;51.654;14.376;2024-02-21T08:59:46;8.37;;;4.83;;
16442;SDS011;8331;51.654;14.376;2024-02-21T09:02:13;10.30;;;5.00;;
16442;SDS011;8331;51.654;14.376;2024-02-21T09:04:42;7.70;;;4.67;;
16442;SDS011;8331;51.654;14.376;2024-02-21T09:07:10;10.57;;;5.00;;
16442;SDS011;8331;51.654;14.376;2024-02-21T09:09:37;9.85;;;5.20;;
16442;SDS011;8331;51.654;14.376;2024-02-21T09:12:06;9.00;;;4.93;;
16442;SDS011;8331;51.654;14.376;2024-02-21T09:14:33;7.90;;;4.10;;
16442;SDS011;8331;51.654;14.376;2024-02-21T09:17:00;7.47;;;5.30;;
16442;SDS011;8331;51.654;14.376;2024-02-21T09:19:27;9.53;;;4.83;;
16442;SDS011;8331;51.654;14.376;2024-02-21T09:21:53;8.80;;;5.20;;
16442;SDS011;8331;51.654;14.376;2024-02-21T09:24:20;9.67;;;4.90;;
16442;SDS011;8331;51.654;14.376;2024-02-21T09:26:47;7.50;;;4.43;;
16442;SDS011;8331;51.654;14.376;2024-02-21T09:29:14;8.27;;;5.27;;
16442;SDS011;8331;51.654;14.376;2024-02-21T09:31:42;11.03;;;5.60;;
16442;SDS011;8331;51.654;14.376;2024-02-21T09:34:09;8.47;;;5.87;;
16442;SDS011;8331;51.654;14.376;2024-02-21T09:36:37;9.00;;;5.17;;
16442;SDS011;8331;51.654;14.376;2024-02-21T09:39:06;9.10;;;5.20;;
16442;SDS011;8331;51.654;14.376;2024-02-21T09:41:33;7.23;;;5.57;;
16442;SDS011;8331;51.654;14.376;2024-02-21T09:44:02;12.10;;;5.53;;
16442;SDS011;8331;51.654;14.376;2024-02-21T09:49:29;10.60;;;5.73;;
16442;SDS011;8331;51.654;14.376;2024-02-21T09:51:56;9.57;;;6.30;;
16442;SDS011;8331;51.654;14.376;2024-02-21T09:54:23;11.07;;;6.00;;
16442;SDS011;8331;51.654;14.376;2024-02-21T09:56:50;8.93;;;5.90;;
16442;SDS011;8331;51.654;14.376;2024-02-21T09:59:17;13.80;;;6.03;;
16442;SDS011;8331;51.654;14.376;2024-02-21T10:01:44;9.20;;;5.60;;
16442;SDS011;8331;51.654;14.376;2024-02-21T10:04:11;9.73;;;6.67;;
16442;SDS011;8331;51.654;14.376;2024-02-21T10:06:38;6.47;;;5.70;;
16442;SDS011;8331;51.654;14.376;2024-02-21T10:09:06;8.10;;;5.63;;
16442;SDS011;8331;51.654;14.376;2024-02-21T10:11:32;10.53;;;5.23;;
16442;SDS011;8331;51.654;14.376;2024-02-21T10:14:05;7.40;;;5.80;;
16442;SDS011;8331;51.654;14.376;2024-02-21T10:16:33;9.63;;;6.03;;
16442;SDS011;8331;51.654;14.376;2024-02-21T10:19:00;10.17;;;5.67;;
16442;SDS011;8331;51.654;14.376;2024-02-21T10:21:27;10.70;;;5.20;;
16442;SDS011;8331;51.654;14.376;2024-02-21T10:23:53;8.17;;;5.37;;
16442;SDS011;8331;51.654;14.376;2024-02-21T10:26:20;6.87;;;5.10;;
16442;SDS011;8331;51.654;14.376;2024-02-21T10:28:47;6.80;;;5.17;;
16442;SDS011;8331;51.654;14.376;2024-02-21T10:31:22;7.97;;;4.97;;
16442;SDS011;8331;51.654;14.376;2024-02-21T10:33:54;11.30;;;5.50;;
16442;SDS011;8331;51.654;14.376;2024-02-21T10:36:21;9.07;;;5.70;;
16442;SDS011;8331;51.654;14.376;2024-02-21T10:38:48;7.00;;;5.20;;
16442;SDS011;8331;51.654;14.376;2024-02-21T10:41:14;12.30;;;5.17;;
16442;SDS011;8331;51.654;14.376;2024-02-21T10:43:42;7.03;;;4.90;;
16442;SDS011;8331;51.654;14.376;2024-02-21T10:46:13;7.23;;;4.50;;
16442;SDS011;8331;51.654;14.376;2024-02-21T10:48:41;9.47;;;4.97;;
16442;SDS011;8331;51.654;14.376;2024-02-21T10:51:16;10.23;;;5.60;;
16442;SDS011;8331;51.654;14.376;2024-02-21T10:56:28;5.90;;;4.83;;
16442;SDS011;8331;51.654;14.376;2024-02-21T10:58:57;10.73;;;5.17;;
16442;SDS011;8331;51.654;14.376;2024-02-21T11:01:24;7.73;;;5.30;;
16442;SDS011;8331;51.654;14.376;2024-02-21T11:03:54;11.90;;;5.47;;
16442;SDS011;8331;51.654;14.376;2024-02-21T11:06:21;8.57;;;4.77;;
16442;SDS011;8331;51.654;14.376;2024-02-21T11:09:01;8.60;;;4.90;;
16442;SDS011;8331;51.654;14.376;2024-02-21T11:11:30;7.63;;;5.03;;
16442;SDS011;8331;51.654;14.376;2024-02-21T11:14:08;8.37;;;5.00;;
16442;SDS011;8331;51.654;14.376;2024-02-21T11:16:36;9.50;;;5.20;;
16442;SDS011;8331;51.654;14.376;2024-02-21T11:19:26;8.47;;;4.97;;
16442;SDS011;8331;51.654;14.376;2024-02-21T11:21:51;6.93;;;4.93;;
16442;SDS011;8331;51.654;14.376;2024-02-21T11:26:56;9.40;;;4.97;;
16442;SDS011;8331;51.654;14.376;2024-02-21T11:29:23;7.07;;;4.77;;
16442;SDS011;8331;51.654;14.376;2024-02-21T11:31:51;10.80;;;5.37;;
16442;SDS011;8331;51.654;14.376;2024-02-21T11:34:18;10.33;;;5.00;;
16442;SDS011;8331;51.654;14.376;2024-02-21T11:36:49;8.70;;;5.20;;
16442;SDS011;8331;51.654;14.376;2024-02-21T11:39:24;9.67;;;5.20;;
16442;SDS011;8331;51.654;14.376;2024-02-21T11:42:01;8.87;;;5.03;;
16442;SDS011;8331;51.654;14.376;2024-02-21T11:44:27;9.87;;;6.07;;
16442;SDS011;8331;51.654;14.376;2024-02-21T11:46:54;6.80;;;4.80;;
16442;SDS011;8331;51.654;14.376;2024-02-21T11:49:24;7.93;;;4.50;;
16442;SDS011;8331;51.654;14.376;2024-02-21T11:51:57;10.47;;;4.50;;
16442;SDS011;8331;51.654;14.376;2024-02-21T11:54:24;7.27;;;4.50;;
16442;SDS011;8331;51.654;14.376;2024-02-21T11:56:51;9.70;;;4.73;;
16442;SDS011;8331;51.654;14.376;2024-02-21T11:59:17;7.23;;;4.43;;
16442;SDS011;8331;51.654;14.376;2024-02-21T12:01:44;7.27;;;5.17;;
16442;SDS011;8331;51.654;14.376;2024-02-21T12:04:11;7.23;;;4.70;;
16442;SDS011;8331;51.654;14.376;2024-02-21T12:06:38;8.13;;;5.30;;
16442;SDS011;8331;51.654;14.376;2024-02-21T12:09:07;10.27;;;5.03;;
16442;SDS011;8331;51.654;14.376;2024-02-21T12:11:35;6.10;;;4.30;;
16442;SDS011;8331;51.654;14.376;2024-02-21T12:14:02;7.23;;;5.03;;
16442;SDS011;8331;51.654;14.376;2024-02-21T12:16:30;6.40;;;4.37;;
16442;SDS011;8331;51.654;14.376;2024-02-21T12:18:58;8.10;;;5.00;;
16442;SDS011;8331;51.654;14.376;2024-02-21T12:21:32;11.40;;;6.67;;
16442;SDS011;8331;51.654;14.376;2024-02-21T12:24:00;5.63;;;4.77;;
16442;SDS011;8331;51.654;14.376;2024-02-21T12:26:26;8.23;;;5.30;;
16442;SDS011;8331;51.654;14.376;2024-02-21T12:28:53;8.77;;;5.00;;
16442;SDS011;8331;51.654;14.376;2024-02-21T12:31:21;7.53;;;5.00;;
16442;SDS011;8331;51.654;14.376;2024-02-21T12:33:48;7.13;;;4.43;;
16442;SDS011;8331;51.654;14.376;2024-02-21T12:36:15;8.43;;;4.87;;
16442;SDS011;8331;51.654;14.376;2024-02-21T12:38:41;11.27;;;5.33;;
16442;SDS011;8331;51.654;14.376;2024-02-21T12:41:09;7.90;;;5.30;;
16442;SDS011;8331;51.654;14.376;2024-02-21T12:43:35;8.60;;;5.43;;
16442;SDS011;8331;51.654;14.376;2024-02-21T12:46:03;8.90;;;5.47;;
16442;SDS011;8331;51.654;14.376;2024-02-21T12:48:29;11.00;;;5.03;;
16442;SDS011;8331;51.654;14.376;2024-02-21T12:50:56;6.97;;;4.70;;
16442;SDS011;8331;51.654;14.376;2024-02-21T12:53:23;9.70;;;5.40;;
16442;SDS011;8331;51.654;14.376;2024-02-21T12:55:58;8.00;;;5.10;;
16442;SDS011;8331;51.654;14.376;2024-02-21T12:58:25;8.63;;;5.00;;
16442;SDS011;8331;51.654;14.376;2024-02-21T13:00:52;9.70;;;4.70;;
16442;SDS011;8331;51.654;14.376;2024-02-21T13:03:19;8.30;;;4.60;;
16442;SDS011;8331;51.654;14.376;2024-02-21T13:05:48;12.27;;;5.50;;
16442;SDS011;8331;51.654;14.376;2024-02-21T13:08:14;8.13;;;4.97;;
16442;SDS011;8331;51.654;14.376;2024-02-21T13:10:41;7.40;;;4.87;;
16442;SDS011;8331;51.654;14.376;2024-02-21T13:13:08;6.27;;;4.37;;
16442;SDS011;8331;51.654;14.376;2024-02-21T13:15:35;7.67;;;4.83;;
16442;SDS011;8331;51.654;14.376;2024-02-21T13:18:03;10.57;;;5.10;;
16442;SDS011;8331;51.654;14.376;2024-02-21T13:20:30;11.53;;;5.10;;
16442;SDS011;8331;51.654;14.376;2024-02-21T13:22:57;6.50;;;4.77;;
16442;SDS011;8331;51.654;14.376;2024-02-21T13:25:24;7.97;;;5.13;;
16442;SDS011;8331;51.654;14.376;2024-02-21T13:27:51;8.50;;;4.73;;
16442;SDS011;8331;51.654;14.376;2024-02-21T13:30:17;8.13;;;4.50;;
16442;SDS011;8331;51.654;14.376;2024-02-21T13:32:44;7.60;;;4.80;;
16442;SDS011;8331;51.654;14.376;2024-02-21T13:35:14;10.27;;;5.20;;
16442;SDS011;8331;51.654;14.376;2024-02-21T13:37:41;7.30;;;4.80;;
16442;SDS011;8331;51.654;14.376;2024-02-21T13:40:08;7.23;;;4.80;;
16442;SDS011;8331;51.654;14.376;2024-02-21T13:42:37;6.07;;;4.47;;
16442;SDS011;8331;51.654;14.376;2024-02-21T13:45:04;6.97;;;4.20;;
16442;SDS011;8331;51.654;14.376;2024-02-21T13:47:34;4.77;;;4.00;;
16442;SDS011;8331;51.654;14.376;2024-02-21T13:50:03;7.33;;;4.17;;
16442;SDS011;8331;51.654;14.376;2024-02-21T13:52:36;8.07;;;4.30;;
16442;SDS011;8331;51.654;14.376;2024-02-21T13:55:02;7.53;;;3.77;;
16442;SDS011;8331;51.654;14.376;2024-02-21T13:57:29;5.93;;;4.10;;
16442;SDS011;8331;51.654;14.376;2024-02-21T13:59:56;6.53;;;3.80;;
16442;SDS011;8331;51.654;14.376;2024-02-21T14:02:22;7.33;;;4.07;;
16442;SDS011;8331;51.654;14.376;2024-02-21T14:04:49;4.43;;;3.67;;
16442;SDS011;8331;51.654;14.376;2024-02-21T14:07:16;8.43;;;4.80;;
16442;SDS011;8331;51.654;14.376;2024-02-21T14:09:43;4.57;;;3.30;;
16442;SDS011;8331;51.654;14.376;2024-02-21T14:12:10;4.97;;;3.43;;
16442;SDS011;8331;51.654;14.376;2024-02-21T14:14:37;5.57;;;3.87;;
16442;SDS011;8331;51.654;14.376;2024-02-21T14:17:06;6.13;;;4.07;;
16442;SDS011;8331;51.654;14.376;2024-02-21T14:19:32;6.80;;;3.50;;
16442;SDS011;8331;51.654;14.376;2024-02-21T14:21:59;6.10;;;3.70;;
16442;SDS011;8331;51.654;14.376;2024-02-21T14:24:26;6.23;;;3.63;;
16442;SDS011;8331;51.654;14.376;2024-02-21T14:26:54;4.23;;;3.73;;
16442;SDS011;8331;51.654;14.376;2024-02-21T14:29:21;8.07;;;3.70;;
16442;SDS011;8331;51.654;14.376;2024-02-21T14:31:48;5.23;;;3.50;;
16442;SDS011;8331;51.654;14.376;2024-02-21T14:34:15;5.07;;;3.90;;
16442;SDS011;8331;51.654;14.376;2024-02-21T14:36:42;7.43;;;4.40;;
16442;SDS011;8331;51.654;14.376;2024-02-21T14:39:09;7.03;;;4.13;;
16442;SDS011;8331;51.654;14.376;2024-02-21T14:41:35;6.97;;;3.83;;
16442;SDS011;8331;51.654;14.376;2024-02-21T14:44:02;5.13;;;3.60;;
16442;SDS011;8331;51.654;14.376;2024-02-21T14:46:30;5.37;;;4.00;;
16442;SDS011;8331;51.654;14.376;2024-02-21T14:48:57;5.73;;;3.93;;